Time;durP1;ratioP1;P1;durP2;ratioP2;P2;SDS_P1;SDS_P2;PMS_P1;PMS_P2;Temp;Humidity;BMP_temperature;BMP_pressure;BME280_temperature;BME280_humidity;BME280_pressure;Samples;Min_cycle;Max_cycle;Signal;HPM_P1;HPM_P2
2022/01/07 00:01:14;;;;;;;11.37;5.43;;;;;;;;;;5035906;28;20433;-64
2022/01/07 00:03:40;;;;;;;11.37;5.10;;;;;;;;;;5037601;28;20716;-65
2022/01/07 00:06:06;;;;;;;14.60;6.20;;;;;;;;;;5036926;28;20254;-64
2022/01/07 00:08:32;;;;;;;15.23;5.00;;;;;;;;;;5037147;28;20541;-64
2022/01/07 00:10:58;;;;;;;13.27;6.33;;;;;;;;;;5037247;28;20410;-64
2022/01/07 00:13:25;;;;;;;8.23;4.70;;;;;;;;;;5037072;28;20181;-64
2022/01/07 00:15:53;;;;;;;8.47;4.97;;;;;;;;;;5037165;28;20187;-65
2022/01/07 00:18:19;;;;;;;11.47;5.50;;;;;;;;;;5035730;28;20604;-64
2022/01/07 00:20:46;;;;;;;8.43;4.40;;;;;;;;;;5036960;28;20972;-64
2022/01/07 00:23:12;;;;;;;16.27;4.77;;;;;;;;;;5036992;28;20492;-65
2022/01/07 00:25:38;;;;;;;11.00;5.43;;;;;;;;;;5037515;28;20179;-65
2022/01/07 00:28:04;;;;;;;10.60;5.10;;;;;;;;;;5035700;28;20175;-64
2022/01/07 00:30:30;;;;;;;13.47;6.03;;;;;;;;;;5036561;28;20229;-64
2022/01/07 00:32:56;;;;;;;12.43;6.03;;;;;;;;;;5034791;28;20552;-65
2022/01/07 00:35:22;;;;;;;13.13;6.77;;;;;;;;;;5036594;28;20219;-64
2022/01/07 00:37:49;;;;;;;10.73;5.83;;;;;;;;;;5035856;28;20422;-65
2022/01/07 00:40:16;;;;;;;12.77;6.07;;;;;;;;;;5036969;28;20215;-66
2022/01/07 00:42:42;;;;;;;9.67;5.10;;;;;;;;;;5036561;28;20461;-64
2022/01/07 00:45:09;;;;;;;17.47;6.13;;;;;;;;;;5035080;28;20179;-64
2022/01/07 00:47:35;;;;;;;13.20;5.57;;;;;;;;;;5035216;28;20468;-65
2022/01/07 00:50:01;;;;;;;9.33;5.30;;;;;;;;;;5062031;23;20194;-65
2022/01/07 00:52:27;;;;;;;10.93;5.70;;;;;;;;;;5056266;28;20206;-64
2022/01/07 00:54:55;;;;;;;11.87;5.27;;;;;;;;;;5056282;28;20186;-65
2022/01/07 00:57:21;;;;;;;12.47;5.37;;;;;;;;;;5070646;28;20182;-64
2022/01/07 00:59:47;;;;;;;9.70;5.13;;;;;;;;;;5055105;28;20416;-65
2022/01/07 01:02:14;;;;;;;9.23;4.93;;;;;;;;;;5070482;28;20785;-65
2022/01/07 01:04:40;;;;;;;15.57;5.87;;;;;;;;;;5070304;28;20417;-65
2022/01/07 01:07:06;;;;;;;12.90;5.20;;;;;;;;;;5054885;28;20409;-64
2022/01/07 01:09:32;;;;;;;10.63;5.23;;;;;;;;;;5070247;28;20424;-65
2022/01/07 01:12:00;;;;;;;9.57;5.53;;;;;;;;;;5054990;28;20610;-64
2022/01/07 01:14:26;;;;;;;13.37;4.97;;;;;;;;;;5055939;28;20175;-64
2022/01/07 01:16:52;;;;;;;11.83;6.00;;;;;;;;;;5056242;28;20182;-64
2022/01/07 01:19:18;;;;;;;12.57;5.57;;;;;;;;;;5056087;28;20225;-64
2022/01/07 01:21:44;;;;;;;11.73;5.37;;;;;;;;;;5054727;28;20991;-64
2022/01/07 01:24:10;;;;;;;11.10;5.60;;;;;;;;;;5054754;28;20924;-64
2022/01/07 01:26:36;;;;;;;12.77;5.80;;;;;;;;;;5070166;28;20190;-64
2022/01/07 01:29:03;;;;;;;9.60;5.47;;;;;;;;;;5054688;28;20257;-65
2022/01/07 01:31:30;;;;;;;15.67;5.50;;;;;;;;;;5054619;28;20704;-64
2022/01/07 01:33:57;;;;;;;14.47;6.13;;;;;;;;;;5055037;28;20224;-64
2022/01/07 01:36:23;;;;;;;11.37;5.20;;;;;;;;;;5054640;28;20183;-64
2022/01/07 01:38:49;;;;;;;9.77;5.20;;;;;;;;;;5069597;28;20178;-65
2022/01/07 01:41:15;;;;;;;6.97;4.57;;;;;;;;;;5054576;28;20198;-64
2022/01/07 01:43:41;;;;;;;11.93;5.90;;;;;;;;;;5054275;28;20599;-65
2022/01/07 01:46:07;;;;;;;13.43;6.00;;;;;;;;;;5054926;28;20401;-64
2022/01/07 01:48:33;;;;;;;12.50;5.43;;;;;;;;;;5054336;28;20175;-64
2022/01/07 01:50:59;;;;;;;15.50;5.47;;;;;;;;;;5054074;28;20214;-64
2022/01/07 01:53:25;;;;;;;17.20;5.53;;;;;;;;;;5054589;28;20412;-63
2022/01/07 01:55:52;;;;;;;13.17;5.20;;;;;;;;;;5069667;28;20186;-64
2022/01/07 01:58:18;;;;;;;10.07;5.13;;;;;;;;;;5053872;28;20463;-64
2022/01/07 02:00:44;;;;;;;8.93;5.30;;;;;;;;;;5069370;28;20494;-64
2022/01/07 02:03:10;;;;;;;12.93;5.77;;;;;;;;;;5054152;28;20245;-64
2022/01/07 02:05:36;;;;;;;9.27;5.13;;;;;;;;;;5069198;28;20269;-64
2022/01/07 02:08:02;;;;;;;13.53;5.77;;;;;;;;;;5053836;28;20449;-65
2022/01/07 02:10:28;;;;;;;11.40;5.30;;;;;;;;;;5069545;28;20369;-65
2022/01/07 02:12:54;;;;;;;6.83;3.97;;;;;;;;;;5069284;28;20420;-65
2022/01/07 02:15:20;;;;;;;12.70;5.17;;;;;;;;;;5053874;28;20565;-64
2022/01/07 02:17:48;;;;;;;12.03;5.10;;;;;;;;;;5069133;28;20421;-64
2022/01/07 02:20:16;;;;;;;8.13;4.70;;;;;;;;;;5069137;28;20429;-64
2022/01/07 02:22:42;;;;;;;11.67;5.40;;;;;;;;;;5069137;28;20461;-64
2022/01/07 02:25:08;;;;;;;9.20;4.33;;;;;;;;;;5069186;28;20508;-64
2022/01/07 02:27:39;;;;;;;12.00;4.73;;;;;;;;;;5069071;28;20507;-63
2022/01/07 02:30:05;;;;;;;8.20;4.97;;;;;;;;;;5053563;28;20412;-64
2022/01/07 02:32:31;;;;;;;9.73;4.03;;;;;;;;;;5053396;28;20409;-64
2022/01/07 02:34:57;;;;;;;9.57;4.70;;;;;;;;;;5068942;28;20455;-64
2022/01/07 02:37:23;;;;;;;7.40;4.93;;;;;;;;;;5053372;28;20210;-64
2022/01/07 02:39:49;;;;;;;10.80;5.40;;;;;;;;;;5053757;28;20208;-64
2022/01/07 02:42:16;;;;;;;8.97;5.30;;;;;;;;;;5053274;28;20733;-65
2022/01/07 02:44:42;;;;;;;12.57;5.50;;;;;;;;;;5053394;28;20452;-64
2022/01/07 02:47:08;;;;;;;9.53;5.13;;;;;;;;;;5053963;28;20496;-64
2022/01/07 02:49:34;;;;;;;8.27;5.00;;;;;;;;;;5053434;28;20870;-64
2022/01/07 02:52:00;;;;;;;10.87;4.97;;;;;;;;;;5072419;28;20579;-64
2022/01/07 02:54:26;;;;;;;9.30;5.27;;;;;;;;;;5057286;28;20189;-64
2022/01/07 02:56:52;;;;;;;10.57;4.97;;;;;;;;;;5057385;28;20186;-64
2022/01/07 02:59:19;;;;;;;7.53;5.33;;;;;;;;;;5072857;28;20217;-64
2022/01/07 03:01:45;;;;;;;11.23;5.10;;;;;;;;;;5072599;28;20465;-64
2022/01/07 03:04:11;;;;;;;8.93;5.63;;;;;;;;;;5057260;28;20962;-64
2022/01/07 03:06:37;;;;;;;11.17;5.37;;;;;;;;;;5057532;28;20197;-65
2022/01/07 03:09:04;;;;;;;10.13;5.33;;;;;;;;;;5072781;28;20179;-64
2022/01/07 03:11:30;;;;;;;12.83;6.07;;;;;;;;;;5073870;28;20433;-64
2022/01/07 03:13:56;;;;;;;7.90;5.07;;;;;;;;;;5059445;28;20427;-64
2022/01/07 03:16:22;;;;;;;12.00;5.43;;;;;;;;;;5075209;28;20254;-64
2022/01/07 03:18:48;;;;;;;9.73;5.97;;;;;;;;;;5058360;28;20405;-64
2022/01/07 03:21:14;;;;;;;12.10;6.13;;;;;;;;;;5072238;28;20216;-64
2022/01/07 03:23:41;;;;;;;12.63;6.50;;;;;;;;;;5057593;28;20412;-64
2022/01/07 03:26:07;;;;;;;10.80;6.20;;;;;;;;;;5072129;28;20405;-65
2022/01/07 03:28:34;;;;;;;12.77;6.47;;;;;;;;;;5057075;28;20500;-65
2022/01/07 03:30:59;;;;;;;8.23;5.67;;;;;;;;;;5056917;28;20490;-65
2022/01/07 03:33:26;;;;;;;12.00;5.97;;;;;;;;;;5056920;28;20421;-65
2022/01/07 03:35:52;;;;;;;12.37;5.77;;;;;;;;;;5072304;28;20185;-64
2022/01/07 03:38:18;;;;;;;13.43;5.33;;;;;;;;;;5057203;28;20416;-65
2022/01/07 03:40:44;;;;;;;10.87;6.20;;;;;;;;;;5072297;28;20198;-65
2022/01/07 03:43:10;;;;;;;11.80;6.73;;;;;;;;;;5056922;28;20944;-64
2022/01/07 03:45:36;;;;;;;13.03;6.33;;;;;;;;;;5071875;28;20413;-64
2022/01/07 03:48:02;;;;;;;18.43;8.03;;;;;;;;;;5056465;28;20405;-65
2022/01/07 03:50:29;;;;;;;16.70;8.80;;;;;;;;;;5072086;28;20461;-64
2022/01/07 03:52:55;;;;;;;15.47;8.73;;;;;;;;;;5056767;28;20213;-65
2022/01/07 03:55:23;;;;;;;20.57;10.40;;;;;;;;;;5056479;28;20467;-65
2022/01/07 03:57:49;;;;;;;18.17;12.37;;;;;;;;;;5056590;28;20408;-65
2022/01/07 04:00:16;;;;;;;21.03;11.40;;;;;;;;;;5056520;28;20413;-64
2022/01/07 04:02:43;;;;;;;24.57;11.97;;;;;;;;;;5071477;28;20488;-65
2022/01/07 04:05:09;;;;;;;19.57;10.63;;;;;;;;;;5056506;28;20414;-64
2022/01/07 04:07:35;;;;;;;17.73;10.30;;;;;;;;;;5071923;28;20614;-65
2022/01/07 04:10:02;;;;;;;26.30;10.90;;;;;;;;;;5055989;28;20837;-64
2022/01/07 04:12:28;;;;;;;19.07;9.73;;;;;;;;;;5056403;28;20272;-64
2022/01/07 04:15:12;;;;;;;22.97;9.17;;;;;;;;;;5056282;28;20408;-64
2022/01/07 04:17:43;;;;;;;13.33;8.20;;;;;;;;;;5071460;28;20754;-64
2022/01/07 04:20:10;;;;;;;12.40;8.27;;;;;;;;;;5056505;28;20823;-64
2022/01/07 04:22:36;;;;;;;16.50;8.20;;;;;;;;;;5055828;28;20456;-64
2022/01/07 04:25:04;;;;;;;16.20;8.03;;;;;;;;;;5071212;28;20436;-64
2022/01/07 04:27:30;;;;;;;10.67;6.80;;;;;;;;;;5055959;28;20409;-64
2022/01/07 04:29:56;;;;;;;12.57;7.17;;;;;;;;;;5071552;28;20491;-65
2022/01/07 04:32:22;;;;;;;13.13;7.00;;;;;;;;;;5055974;28;20913;-64
2022/01/07 04:34:48;;;;;;;11.27;6.97;;;;;;;;;;5055594;28;20206;-64
2022/01/07 04:37:14;;;;;;;12.13;6.47;;;;;;;;;;5055661;28;20424;-64
2022/01/07 04:39:40;;;;;;;11.20;6.17;;;;;;;;;;5055900;28;20414;-65
2022/01/07 04:42:06;;;;;;;10.63;5.87;;;;;;;;;;5070882;28;20686;-65
2022/01/07 04:44:32;;;;;;;13.77;6.70;;;;;;;;;;5055579;28;20178;-64
2022/01/07 04:46:58;;;;;;;10.00;5.77;;;;;;;;;;5055665;28;20443;-65
2022/01/07 04:49:24;;;;;;;10.17;5.67;;;;;;;;;;5055739;28;20405;-65
2022/01/07 04:51:50;;;;;;;12.13;6.37;;;;;;;;;;5055219;28;20691;-65
2022/01/07 04:54:16;;;;;;;11.40;6.23;;;;;;;;;;5070694;28;20174;-64
2022/01/07 04:56:42;;;;;;;12.13;6.17;;;;;;;;;;5055844;28;20185;-64
2022/01/07 04:59:08;;;;;;;12.60;6.20;;;;;;;;;;5055079;28;20178;-65
2022/01/07 05:01:34;;;;;;;11.00;5.47;;;;;;;;;;5055165;28;20208;-64
2022/01/07 05:04:00;;;;;;;11.53;5.43;;;;;;;;;;5055327;28;20175;-64
2022/01/07 05:08:51;;;;;;;8.87;6.00;;;;;;;;;;5055291;28;20186;-64
2022/01/07 05:11:17;;;;;;;9.33;5.40;;;;;;;;;;5070282;28;20248;-64
2022/01/07 05:13:43;;;;;;;10.50;5.80;;;;;;;;;;5069877;28;20575;-65
2022/01/07 05:16:09;;;;;;;11.17;5.97;;;;;;;;;;5054959;28;20666;-65
2022/01/07 05:18:35;;;;;;;9.23;5.93;;;;;;;;;;5070380;28;20204;-65
2022/01/07 05:21:01;;;;;;;10.63;6.23;;;;;;;;;;5055204;28;20202;-65
2022/01/07 05:23:27;;;;;;;13.70;6.60;;;;;;;;;;5054852;28;20279;-65
2022/01/07 05:25:53;;;;;;;9.47;5.80;;;;;;;;;;5055420;28;20178;-65
2022/01/07 05:28:19;;;;;;;9.80;5.93;;;;;;;;;;5055149;28;20600;-65
2022/01/07 05:30:45;;;;;;;14.83;6.03;;;;;;;;;;5054433;28;20225;-65
2022/01/07 05:33:11;;;;;;;11.97;5.77;;;;;;;;;;5071521;28;20182;-65
2022/01/07 05:35:37;;;;;;;12.97;5.47;;;;;;;;;;5076812;28;20182;-65
2022/01/07 05:38:03;;;;;;;10.27;4.60;;;;;;;;;;5078498;28;20555;-65
2022/01/07 05:40:29;;;;;;;11.43;4.93;;;;;;;;;;5069532;28;20201;-65
2022/01/07 05:42:55;;;;;;;7.17;4.30;;;;;;;;;;5062395;28;20670;-65
2022/01/07 05:45:21;;;;;;;5.97;3.27;;;;;;;;;;5055228;28;20463;-66
2022/01/07 05:47:46;;;;;;;13.60;4.47;;;;;;;;;;5054607;28;20607;-66
2022/01/07 05:50:13;;;;;;;9.07;3.87;;;;;;;;;;5069398;28;20181;-65
2022/01/07 05:52:39;;;;;;;7.13;3.77;;;;;;;;;;5054880;28;20170;-65
2022/01/07 05:55:06;;;;;;;6.73;3.80;;;;;;;;;;5054454;28;20923;-65
2022/01/07 05:57:32;;;;;;;5.40;3.37;;;;;;;;;;5069632;28;20471;-65
2022/01/07 05:59:58;;;;;;;10.43;4.03;;;;;;;;;;5054535;28;20405;-65
2022/01/07 06:02:24;;;;;;;6.60;3.97;;;;;;;;;;5069759;28;20456;-65
2022/01/07 06:04:50;;;;;;;11.33;4.37;;;;;;;;;;5054727;28;20408;-65
2022/01/07 06:07:16;;;;;;;6.33;4.10;;;;;;;;;;5055010;28;20657;-65
2022/01/07 06:09:42;;;;;;;9.80;4.03;;;;;;;;;;5069442;28;20178;-66
2022/01/07 06:12:08;;;;;;;14.30;4.33;;;;;;;;;;5069578;28;20449;-65
2022/01/07 06:14:34;;;;;;;9.90;4.57;;;;;;;;;;5054174;28;20178;-65
2022/01/07 06:17:00;;;;;;;8.60;4.03;;;;;;;;;;5054202;28;20417;-65
2022/01/07 06:19:26;;;;;;;7.70;4.30;;;;;;;;;;5070763;28;20266;-65
2022/01/07 06:21:52;;;;;;;7.90;5.10;;;;;;;;;;5073714;28;20456;-65
2022/01/07 06:24:18;;;;;;;11.37;5.30;;;;;;;;;;5077414;28;20208;-66
2022/01/07 06:26:44;;;;;;;12.97;5.33;;;;;;;;;;5092356;28;20425;-65
2022/01/07 06:29:10;;;;;;;7.60;4.70;;;;;;;;;;5076848;28;20163;-65
2022/01/07 06:31:36;;;;;;;13.40;5.03;;;;;;;;;;5075773;28;20456;-66
2022/01/07 06:34:02;;;;;;;9.40;4.63;;;;;;;;;;5092636;28;20448;-67
2022/01/07 06:36:29;;;;;;;7.93;4.83;;;;;;;;;;5075302;28;20175;-64
2022/01/07 06:38:55;;;;;;;9.70;4.97;;;;;;;;;;5076512;28;20409;-66
2022/01/07 06:41:21;;;;;;;12.63;5.13;;;;;;;;;;5090894;28;20535;-65
2022/01/07 06:43:47;;;;;;;8.77;5.37;;;;;;;;;;5076799;28;20159;-65
2022/01/07 06:46:13;;;;;;;9.53;4.93;;;;;;;;;;5074877;28;20435;-66
2022/01/07 06:48:41;;;;;;;10.63;5.63;;;;;;;;;;5076245;28;20175;-65
2022/01/07 06:51:07;;;;;;;9.93;5.07;;;;;;;;;;5090143;28;20218;-66
2022/01/07 06:53:33;;;;;;;10.00;4.97;;;;;;;;;;5076037;28;20404;-66
2022/01/07 06:55:59;;;;;;;8.23;5.20;;;;;;;;;;5068688;22;20272;-65
2022/01/07 06:58:26;;;;;;;11.97;4.83;;;;;;;;;;5038102;28;20405;-67
2022/01/07 07:00:52;;;;;;;8.17;4.87;;;;;;;;;;5037784;28;20460;-66
2022/01/07 07:03:18;;;;;;;12.67;5.07;;;;;;;;;;5037649;28;20457;-65
2022/01/07 07:05:44;;;;;;;7.17;5.00;;;;;;;;;;5038392;28;20199;-65
2022/01/07 07:08:10;;;;;;;11.63;5.37;;;;;;;;;;5036940;28;20176;-65
2022/01/07 07:10:36;;;;;;;11.50;5.63;;;;;;;;;;5036395;28;20217;-65
2022/01/07 07:13:02;;;;;;;8.70;5.03;;;;;;;;;;5037281;28;20260;-65
2022/01/07 07:15:27;;;;;;;10.80;5.10;;;;;;;;;;5036482;28;20203;-65
2022/01/07 07:17:54;;;;;;;8.27;5.50;;;;;;;;;;5035656;28;20202;-65
2022/01/07 07:20:20;;;;;;;10.50;5.13;;;;;;;;;;5035440;28;20242;-65
2022/01/07 07:22:46;;;;;;;10.10;5.73;;;;;;;;;;5034163;28;20505;-66
2022/01/07 07:25:12;;;;;;;8.70;5.63;;;;;;;;;;5035708;28;20218;-65
2022/01/07 07:27:38;;;;;;;6.40;5.07;;;;;;;;;;5037049;28;20222;-63
2022/01/07 07:30:08;;;;;;;8.20;4.83;;;;;;;;;;5034899;28;20422;-66
2022/01/07 07:32:36;;;;;;;7.87;5.90;;;;;;;;;;5034441;28;20513;-65
2022/01/07 07:36:25;;;;;;;9.87;5.23;;;;;;;;;;5034560;28;20674;-66
2022/01/07 07:37:51;;;;;;;8.53;5.53;;;;;;;;;;5038517;28;20422;-67
2022/01/07 07:40:18;;;;;;;8.70;5.33;;;;;;;;;;5039903;28;20183;-65
2022/01/07 07:42:44;;;;;;;6.50;5.47;;;;;;;;;;5039299;28;20518;-66
2022/01/07 07:45:13;;;;;;;8.00;5.57;;;;;;;;;;5039239;28;20782;-64
2022/01/07 07:47:39;;;;;;;7.97;5.80;;;;;;;;;;5039745;28;20175;-66
2022/01/07 07:50:05;;;;;;;8.03;5.60;;;;;;;;;;5037984;28;20278;-66
2022/01/07 07:52:31;;;;;;;8.70;5.50;;;;;;;;;;5037481;28;20570;-65
2022/01/07 07:54:57;;;;;;;7.73;5.77;;;;;;;;;;5038283;28;20214;-65
2022/01/07 07:57:23;;;;;;;7.13;5.70;;;;;;;;;;5038735;28;20598;-66
2022/01/07 07:59:49;;;;;;;8.53;5.50;;;;;;;;;;5038091;28;20422;-65
2022/01/07 08:02:15;;;;;;;7.30;5.43;;;;;;;;;;5038240;28;20207;-66
2022/01/07 08:04:41;;;;;;;9.17;5.37;;;;;;;;;;5037089;28;20198;-66
2022/01/07 08:07:08;;;;;;;8.20;5.10;;;;;;;;;;5038412;28;20191;-66
2022/01/07 08:09:38;;;;;;;11.70;5.33;;;;;;;;;;5037429;28;20183;-65
2022/01/07 08:12:17;;;;;;;8.70;5.63;;;;;;;;;;5037498;28;20215;-66
2022/01/07 08:17:28;;;;;;;11.10;5.67;;;;;;;;;;5039238;28;20190;-65
2022/01/07 08:19:53;;;;;;;8.03;4.30;;;;;;;;;;5039272;28;20628;-64
2022/01/07 08:22:19;;;;;;;13.60;5.93;;;;;;;;;;5039374;28;20203;-65
2022/01/07 08:24:45;;;;;;;12.47;6.07;;;;;;;;;;5039561;28;20202;-64
2022/01/07 08:27:11;;;;;;;11.50;6.87;;;;;;;;;;5039656;28;20608;-64
2022/01/07 08:29:39;;;;;;;8.87;5.70;;;;;;;;;;5039363;28;20250;-65
2022/01/07 08:34:53;;;;;;;6.13;5.30;;;;;;;;;;5041864;28;20210;-65
2022/01/07 08:37:26;;;;;;;6.30;4.87;;;;;;;;;;5042013;28;20194;-64
2022/01/07 08:39:53;;;;;;;10.20;5.70;;;;;;;;;;5041057;28;20295;-64
2022/01/07 08:42:20;;;;;;;12.33;5.87;;;;;;;;;;5042005;28;20262;-65
2022/01/07 08:44:46;;;;;;;6.63;4.80;;;;;;;;;;5041946;28;20202;-70
2022/01/07 08:47:12;;;;;;;8.90;4.93;;;;;;;;;;5042624;28;20175;-64
2022/01/07 08:49:38;;;;;;;8.63;4.73;;;;;;;;;;5040238;28;20202;-64
2022/01/07 08:52:04;;;;;;;6.47;4.60;;;;;;;;;;5042164;28;20816;-64
2022/01/07 08:54:30;;;;;;;7.00;5.07;;;;;;;;;;5041956;28;20683;-65
2022/01/07 08:56:56;;;;;;;4.67;4.00;;;;;;;;;;5042421;28;20418;-67
2022/01/07 08:59:22;;;;;;;5.07;4.50;;;;;;;;;;5040797;28;20183;-64
2022/01/07 09:01:48;;;;;;;5.70;3.87;;;;;;;;;;5040790;28;20213;-63
2022/01/07 09:04:14;;;;;;;6.17;4.70;;;;;;;;;;5040061;28;20203;-64
2022/01/07 09:06:40;;;;;;;12.70;4.90;;;;;;;;;;5042943;28;20175;-64
2022/01/07 09:09:06;;;;;;;8.97;6.00;;;;;;;;;;5042777;28;20170;-63
2022/01/07 09:11:32;;;;;;;8.30;6.00;;;;;;;;;;5042541;28;20250;-64
2022/01/07 09:13:58;;;;;;;6.07;4.87;;;;;;;;;;5040960;28;20186;-64
2022/01/07 09:16:25;;;;;;;9.13;6.27;;;;;;;;;;5039974;28;20200;-63
2022/01/07 09:18:51;;;;;;;7.73;4.80;;;;;;;;;;5040923;28;20235;-62
2022/01/07 09:21:18;;;;;;;8.07;6.07;;;;;;;;;;5041078;28;20211;-63
2022/01/07 09:23:44;;;;;;;6.17;4.13;;;;;;;;;;5040051;28;20211;-65
2022/01/07 09:26:10;;;;;;;6.20;4.97;;;;;;;;;;5041130;28;20195;-64
2022/01/07 09:28:37;;;;;;;8.13;5.27;;;;;;;;;;5040660;28;20234;-63
2022/01/07 09:31:03;;;;;;;6.50;4.73;;;;;;;;;;5039651;28;20197;-68
2022/01/07 09:33:29;;;;;;;6.67;4.30;;;;;;;;;;5040780;28;20191;-65
2022/01/07 09:35:55;;;;;;;7.27;4.83;;;;;;;;;;5039419;28;20340;-64
2022/01/07 09:38:21;;;;;;;4.90;4.40;;;;;;;;;;5039138;28;20530;-64
2022/01/07 09:40:48;;;;;;;6.57;4.67;;;;;;;;;;5039902;28;20263;-66
2022/01/07 09:43:15;;;;;;;6.03;3.73;;;;;;;;;;5039676;28;20675;-65
2022/01/07 09:45:41;;;;;;;7.73;4.70;;;;;;;;;;5039278;28;20187;-65
2022/01/07 09:48:08;;;;;;;4.70;3.80;;;;;;;;;;5037882;28;20205;-65
2022/01/07 09:50:34;;;;;;;7.57;3.77;;;;;;;;;;5037700;28;20577;-64
2022/01/07 09:53:07;;;;;;;4.43;4.00;;;;;;;;;;5039390;28;20175;-65
2022/01/07 09:55:33;;;;;;;5.97;4.17;;;;;;;;;;5037953;28;20223;-64
2022/01/07 09:57:59;;;;;;;3.57;3.27;;;;;;;;;;5038527;28;20209;-64
2022/01/07 10:00:31;;;;;;;3.70;3.20;;;;;;;;;;5038528;28;20183;-63
2022/01/07 10:03:04;;;;;;;4.87;3.60;;;;;;;;;;5040168;28;20199;-66
2022/01/07 10:05:31;;;;;;;3.43;3.13;;;;;;;;;;5040153;28;20202;-65
2022/01/07 10:07:57;;;;;;;4.73;3.60;;;;;;;;;;5040042;28;20178;-64
2022/01/07 10:10:23;;;;;;;5.70;3.77;;;;;;;;;;5039056;28;20550;-65
2022/01/07 10:12:51;;;;;;;4.40;3.70;;;;;;;;;;5039574;28;20214;-64
2022/01/07 10:15:18;;;;;;;3.73;3.30;;;;;;;;;;5039709;28;20233;-65
2022/01/07 10:18:01;;;;;;;6.30;3.70;;;;;;;;;;5039919;28;20235;-65
2022/01/07 10:20:37;;;;;;;4.30;3.70;;;;;;;;;;5039858;28;20576;-66
2022/01/07 10:23:08;;;;;;;6.10;3.47;;;;;;;;;;5040747;28;20280;-65
2022/01/07 10:25:35;;;;;;;5.20;3.73;;;;;;;;;;5038632;28;20199;-64
2022/01/07 10:28:04;;;;;;;3.40;3.10;;;;;;;;;;5039857;28;20199;-65
2022/01/07 10:30:45;;;;;;;4.30;3.90;;;;;;;;;;5039264;28;20175;-69
2022/01/07 10:33:18;;;;;;;3.60;3.30;;;;;;;;;;5038813;28;20183;-63
2022/01/07 10:35:45;;;;;;;4.10;3.70;;;;;;;;;;5039153;28;20290;-64
2022/01/07 10:38:14;;;;;;;7.17;3.80;;;;;;;;;;5039834;28;20203;-64
2022/01/07 10:40:41;;;;;;;4.47;3.50;;;;;;;;;;5039089;28;20179;-65
2022/01/07 10:43:10;;;;;;;5.67;3.57;;;;;;;;;;5038052;28;20229;-65
2022/01/07 10:45:37;;;;;;;6.10;3.77;;;;;;;;;;5039360;28;20210;-64
2022/01/07 10:48:03;;;;;;;3.83;3.40;;;;;;;;;;5039074;28;20175;-64
2022/01/07 10:50:29;;;;;;;5.90;3.50;;;;;;;;;;5039156;28;20183;-64
2022/01/07 10:53:25;;;;;;;4.37;3.97;;;;;;;;;;5038554;28;20354;-64
2022/01/07 10:56:08;;;;;;;6.03;3.47;;;;;;;;;;5021268;28;20306;-64
2022/01/07 10:58:51;;;;;;;4.30;3.60;;;;;;;;;;5039278;28;20189;-65
2022/01/07 11:01:20;;;;;;;4.63;3.50;;;;;;;;;;5039017;28;20274;-63
2022/01/07 11:03:46;;;;;;;6.90;4.70;;;;;;;;;;5038047;28;20274;-64
2022/01/07 11:06:12;;;;;;;5.90;4.37;;;;;;;;;;5038569;28;20195;-64
2022/01/07 11:08:40;;;;;;;5.37;3.20;;;;;;;;;;5039571;28;20176;-65
2022/01/07 11:11:06;;;;;;;5.43;3.80;;;;;;;;;;5039711;28;20183;-64
2022/01/07 11:13:34;;;;;;;5.10;4.10;;;;;;;;;;5041477;28;20245;-64
2022/01/07 11:16:00;;;;;;;4.30;3.43;;;;;;;;;;5042800;28;20672;-64
2022/01/07 11:18:26;;;;;;;4.73;3.50;;;;;;;;;;5043277;28;20207;-69
2022/01/07 11:20:52;;;;;;;4.60;3.90;;;;;;;;;;5040159;28;20183;-62
2022/01/07 11:23:18;;;;;;;6.57;3.80;;;;;;;;;;5043200;28;20675;-63
2022/01/07 11:25:44;;;;;;;4.93;3.70;;;;;;;;;;5042386;28;20286;-64
2022/01/07 11:28:17;;;;;;;5.03;3.60;;;;;;;;;;5042300;28;20181;-63
2022/01/07 11:30:47;;;;;;;3.50;3.20;;;;;;;;;;5041818;28;20266;-63
2022/01/07 11:33:18;;;;;;;4.83;3.47;;;;;;;;;;5042437;28;20210;-63
2022/01/07 11:35:45;;;;;;;3.77;3.33;;;;;;;;;;5040826;28;20232;-65
2022/01/07 11:38:15;;;;;;;5.97;4.20;;;;;;;;;;5042515;28;20179;-64
2022/01/07 11:40:41;;;;;;;5.93;3.63;;;;;;;;;;5041943;28;20186;-64
2022/01/07 11:43:13;;;;;;;6.47;3.63;;;;;;;;;;5040066;28;20211;-65
2022/01/07 11:45:41;;;;;;;3.97;3.33;;;;;;;;;;5040564;28;20230;-64
2022/01/07 11:48:13;;;;;;;7.03;3.87;;;;;;;;;;5042992;28;20179;-66
2022/01/07 11:50:46;;;;;;;6.37;3.70;;;;;;;;;;5040562;28;20179;-65
2022/01/07 11:53:13;;;;;;;4.80;3.03;;;;;;;;;;5040112;28;20179;-65
2022/01/07 11:55:39;;;;;;;4.50;3.03;;;;;;;;;;5041735;28;20222;-63
2022/01/07 11:58:07;;;;;;;5.57;3.73;;;;;;;;;;5042045;28;20179;-65
2022/01/07 12:00:52;;;;;;;8.33;4.13;;;;;;;;;;5040338;28;20191;-64
2022/01/07 12:03:37;;;;;;;7.13;3.67;;;;;;;;;;5042242;28;20202;-64
2022/01/07 12:06:19;;;;;;;7.33;3.43;;;;;;;;;;5042107;28;20202;-65
2022/01/07 12:08:57;;;;;;;3.67;3.20;;;;;;;;;;5041213;28;20171;-64
2022/01/07 12:11:23;;;;;;;3.63;3.10;;;;;;;;;;5042321;28;20179;-66
2022/01/07 12:13:50;;;;;;;6.87;3.67;;;;;;;;;;5041734;28;20254;-64
2022/01/07 12:16:19;;;;;;;3.97;3.57;;;;;;;;;;5041510;28;20213;-64
2022/01/07 12:18:45;;;;;;;7.93;3.83;;;;;;;;;;5041005;28;20545;-64
2022/01/07 12:21:11;;;;;;;5.10;3.00;;;;;;;;;;5041889;28;20182;-64
2022/01/07 12:23:39;;;;;;;7.90;3.70;;;;;;;;;;5040965;28;20207;-64
2022/01/07 12:26:05;;;;;;;6.00;3.77;;;;;;;;;;5042307;28;20248;-64
2022/01/07 12:28:48;;;;;;;11.00;4.80;;;;;;;;;;5040581;28;20182;-63
2022/01/07 12:31:14;;;;;;;7.67;4.70;;;;;;;;;;5040098;28;20179;-63
2022/01/07 12:33:49;;;;;;;3.97;3.30;;;;;;;;;;5040146;28;20186;-64
2022/01/07 12:36:26;;;;;;;12.00;6.73;;;;;;;;;;5041811;28;20313;-65
2022/01/07 12:38:59;;;;;;;11.50;7.23;;;;;;;;;;5040621;28;20251;-63
2022/01/07 12:41:25;;;;;;;5.83;3.23;;;;;;;;;;5042112;28;20179;-64
2022/01/07 12:44:04;;;;;;;8.67;4.40;;;;;;;;;;5040282;28;20241;-71
2022/01/07 12:46:29;;;;;;;11.73;6.57;;;;;;;;;;5038095;28;20289;-64
2022/01/07 12:48:56;;;;;;;15.17;7.20;;;;;;;;;;5036610;28;20196;-64
2022/01/07 12:51:22;;;;;;;5.73;3.90;;;;;;;;;;5036230;28;20634;-64
2022/01/07 12:53:58;;;;;;;6.60;4.20;;;;;;;;;;5036415;28;20171;-65
2022/01/07 12:56:25;;;;;;;9.60;5.37;;;;;;;;;;5035952;28;20223;-64
2022/01/07 12:58:52;;;;;;;8.27;4.77;;;;;;;;;;5035934;28;20190;-64
2022/01/07 13:01:28;;;;;;;7.93;4.50;;;;;;;;;;5036016;28;20179;-64
2022/01/07 13:04:03;;;;;;;5.67;4.47;;;;;;;;;;5035964;28;20217;-66
2022/01/07 13:06:29;;;;;;;6.27;4.27;;;;;;;;;;5035716;28;20694;-63
2022/01/07 13:08:55;;;;;;;7.83;4.70;;;;;;;;;;5035708;28;20215;-64
2022/01/07 13:11:22;;;;;;;7.00;4.33;;;;;;;;;;5036299;28;20586;-64
2022/01/07 13:14:01;;;;;;;8.10;4.57;;;;;;;;;;5036061;28;20211;-64
2022/01/07 13:16:28;;;;;;;9.93;7.00;;;;;;;;;;5034608;28;20678;-63
2022/01/07 13:19:00;;;;;;;29.33;14.23;;;;;;;;;;5035535;28;20171;-64
2022/01/07 13:21:26;;;;;;;20.17;11.33;;;;;;;;;;5035797;28;20163;-64
2022/01/07 13:24:02;;;;;;;13.67;6.37;;;;;;;;;;5035849;28;20563;-64
2022/01/07 13:26:30;;;;;;;5.07;4.57;;;;;;;;;;5035587;28;20195;-63
2022/01/07 13:28:59;;;;;;;8.77;3.90;;;;;;;;;;5035439;28;20679;-65
2022/01/07 13:31:32;;;;;;;4.87;2.63;;;;;;;;;;5036225;28;20609;-64
2022/01/07 13:33:58;;;;;;;6.03;2.90;;;;;;;;;;5033520;28;20278;-66
2022/01/07 13:36:34;;;;;;;4.27;2.93;;;;;;;;;;5034148;28;20604;-65
2022/01/07 13:39:00;;;;;;;7.33;3.13;;;;;;;;;;5036014;28;20170;-65
2022/01/07 13:41:26;;;;;;;4.13;2.37;;;;;;;;;;5050556;23;20824;-65
2022/01/07 13:43:53;;;;;;;6.47;2.50;;;;;;;;;;5049627;28;20218;-65
2022/01/07 13:46:20;;;;;;;10.57;2.73;;;;;;;;;;5050290;28;20468;-65
2022/01/07 13:48:56;;;;;;;3.07;2.10;;;;;;;;;;5034536;28;20179;-65
2022/01/07 13:51:23;;;;;;;5.70;2.23;;;;;;;;;;5034695;28;20516;-65
2022/01/07 13:54:04;;;;;;;6.83;2.40;;;;;;;;;;5034258;28;20511;-65
2022/01/07 13:56:30;;;;;;;5.63;2.40;;;;;;;;;;5034509;28;20678;-65
2022/01/07 13:59:00;;;;;;;5.30;2.57;;;;;;;;;;5034632;28;20183;-65
2022/01/07 14:01:26;;;;;;;5.23;2.83;;;;;;;;;;5034518;28;20210;-66
2022/01/07 14:03:52;;;;;;;3.10;2.53;;;;;;;;;;5032893;28;20853;-65
2022/01/07 14:06:22;;;;;;;4.00;2.83;;;;;;;;;;5034416;28;20910;-65
2022/01/07 14:08:48;;;;;;;4.30;2.70;;;;;;;;;;5034976;28;20180;-66
2022/01/07 14:11:15;;;;;;;4.00;2.60;;;;;;;;;;5032696;28;20227;-66
2022/01/07 14:13:41;;;;;;;6.27;3.30;;;;;;;;;;5034212;28;20417;-65
2022/01/07 14:16:07;;;;;;;8.37;4.07;;;;;;;;;;5034656;28;20179;-65
2022/01/07 14:18:36;;;;;;;9.93;4.50;;;;;;;;;;5034460;28;20179;-65
2022/01/07 14:21:06;;;;;;;9.70;5.37;;;;;;;;;;5034197;28;20551;-65
2022/01/07 14:23:35;;;;;;;10.10;5.47;;;;;;;;;;5034371;28;20465;-65
2022/01/07 14:26:12;;;;;;;6.47;3.73;;;;;;;;;;5034070;28;20414;-65
2022/01/07 14:28:40;;;;;;;5.50;3.20;;;;;;;;;;5034042;28;20178;-65
2022/01/07 14:31:06;;;;;;;6.90;2.60;;;;;;;;;;5033566;28;20199;-65
2022/01/07 14:33:32;;;;;;;2.73;2.30;;;;;;;;;;5033966;28;20418;-65
2022/01/07 14:35:59;;;;;;;6.63;2.63;;;;;;;;;;5033746;28;20418;-65
2022/01/07 14:38:25;;;;;;;6.23;2.53;;;;;;;;;;5033806;28;20187;-65
2022/01/07 14:40:52;;;;;;;5.27;2.83;;;;;;;;;;5034095;28;20705;-65
2022/01/07 14:43:19;;;;;;;8.33;2.53;;;;;;;;;;5033956;28;20264;-65
2022/01/07 14:45:48;;;;;;;4.87;2.43;;;;;;;;;;5033893;28;20452;-65
2022/01/07 14:48:14;;;;;;;6.43;2.53;;;;;;;;;;5037820;28;20575;-65